createdAt,value
2023-05-05T00:01:27.300Z,101206.41
2023-05-05T00:03:54.192Z,101207.06
2023-05-05T00:06:21.125Z,101205.23
2023-05-05T00:08:47.962Z,101205.30
2023-05-05T00:11:14.796Z,101203.22
2023-05-05T00:13:41.635Z,101202.06
2023-05-05T00:16:08.570Z,101202.73
2023-05-05T00:18:35.548Z,101203.39
2023-05-05T00:21:02.419Z,101203.47
2023-05-05T00:23:29.288Z,101197.31
2023-05-05T00:25:56.008Z,101199.30
2023-05-05T00:28:22.955Z,101195.16
2023-05-05T00:30:49.885Z,101197.13
2023-05-05T00:33:16.816Z,101198.05
2023-05-05T00:35:43.595Z,101194.77
2023-05-05T00:38:10.400Z,101195.89
2023-05-05T00:40:38.264Z,101194.43
2023-05-05T00:43:05.310Z,101194.31
2023-05-05T00:45:32.161Z,101193.48
2023-05-05T00:48:00.942Z,101195.14
2023-05-05T00:50:30.370Z,101195.89
2023-05-05T00:53:06.044Z,101192.95
2023-05-05T00:55:35.340Z,101188.77
2023-05-05T00:58:04.149Z,101186.25
2023-05-05T01:00:30.939Z,101187.02
2023-05-05T01:02:58.030Z,101188.73
2023-05-05T01:05:27.175Z,101181.77
2023-05-05T01:08:18.071Z,101183.22
2023-05-05T01:11:00.634Z,101178.83
2023-05-05T01:14:13.725Z,101173.21
2023-05-05T01:16:57.597Z,101171.38
2023-05-05T01:19:36.444Z,101172.61
2023-05-05T01:22:59.986Z,101169.71
2023-05-05T01:25:49.538Z,101169.80
2023-05-05T01:28:16.265Z,101167.02
2023-05-05T01:30:55.112Z,101166.55
2023-05-05T01:33:26.171Z,101165.37
2023-05-05T01:36:03.240Z,101166.84
2023-05-05T01:38:44.112Z,101164.77
2023-05-05T01:41:18.343Z,101164.02
2023-05-05T01:43:50.438Z,101161.30
2023-05-05T01:46:19.416Z,101161.50
2023-05-05T01:48:48.279Z,101159.02
2023-05-05T01:51:17.967Z,101161.88
2023-05-05T01:53:47.367Z,101158.84
2023-05-05T01:56:15.484Z,101152.85
2023-05-05T01:58:45.875Z,101152.86
2023-05-05T02:01:14.527Z,101153.55
2023-05-05T02:03:42.984Z,101147.48
2023-05-05T02:06:11.605Z,101146.36
2023-05-05T02:08:39.554Z,101145.37
2023-05-05T02:11:09.035Z,101145.56
2023-05-05T02:13:39.349Z,101146.30
2023-05-05T02:16:08.532Z,101144.59
2023-05-05T02:18:36.773Z,101149.63
2023-05-05T02:21:04.051Z,101148.38
2023-05-05T02:23:30.795Z,101145.91
2023-05-05T02:26:04.766Z,101147.61
2023-05-05T02:28:51.570Z,101142.52
2023-05-05T02:31:22.991Z,101138.92
2023-05-05T02:33:52.305Z,101139.83
2023-05-05T02:36:26.093Z,101139.96
2023-05-05T02:39:02.217Z,101139.23
2023-05-05T02:41:33.306Z,101138.38
2023-05-05T02:44:13.530Z,101134.77
2023-05-05T02:46:42.653Z,101133.48
2023-05-05T02:49:09.321Z,101134.73
2023-05-05T02:51:36.448Z,101134.45
2023-05-05T02:54:06.482Z,101136.68
2023-05-05T02:56:43.109Z,101136.52
2023-05-05T02:59:19.761Z,101136.17
2023-05-05T03:02:02.764Z,101130.56
2023-05-05T03:04:38.433Z,101132.42
2023-05-05T03:07:12.282Z,101128.48
2023-05-05T03:09:57.357Z,101125.52
2023-05-05T03:12:30.412Z,101126.00
2023-05-05T03:15:13.844Z,101123.84
2023-05-05T03:17:41.875Z,101122.40
2023-05-05T03:20:10.414Z,101119.92
2023-05-05T03:22:38.539Z,101121.94
2023-05-05T03:25:06.464Z,101119.42
2023-05-05T03:27:33.208Z,101119.55
2023-05-05T03:30:00.219Z,101117.90
2023-05-05T03:32:27.692Z,101118.86
2023-05-05T03:34:54.688Z,101121.61
2023-05-05T03:37:25.691Z,101123.59
2023-05-05T03:39:53.022Z,101124.18
2023-05-05T03:42:20.993Z,101121.20
2023-05-05T03:44:47.572Z,101119.71
2023-05-05T03:47:15.170Z,101119.89
2023-05-05T03:49:43.041Z,101119.71
2023-05-05T03:52:09.633Z,101118.59
2023-05-05T03:54:36.866Z,101120.11
2023-05-05T03:57:04.106Z,101118.17
2023-05-05T03:59:30.701Z,101115.41
2023-05-05T04:01:57.391Z,101118.66
2023-05-05T04:04:24.167Z,101118.52
2023-05-05T04:06:51.583Z,101112.60
2023-05-05T04:09:20.132Z,101113.55
2023-05-05T04:11:47.500Z,101113.89
2023-05-05T04:14:14.242Z,101111.95
2023-05-05T04:16:41.133Z,101112.70
2023-05-05T04:19:09.469Z,101119.42
2023-05-05T04:21:37.109Z,101115.91
2023-05-05T04:24:04.298Z,101115.83
2023-05-05T04:26:32.254Z,101117.89
2023-05-05T04:28:59.293Z,101116.98
2023-05-05T04:31:26.485Z,101116.61
2023-05-05T04:33:53.169Z,101118.52
2023-05-05T04:36:19.885Z,101121.94
2023-05-05T04:38:47.261Z,101120.05
2023-05-05T04:41:14.146Z,101122.20
2023-05-05T04:43:41.969Z,101122.98
2023-05-05T04:46:09.239Z,101126.54
2023-05-05T04:48:38.169Z,101126.80
2023-05-05T04:51:07.464Z,101126.92
2023-05-05T04:53:34.476Z,101126.02
2023-05-05T04:56:02.166Z,101125.24
2023-05-05T04:58:29.219Z,101129.35
2023-05-05T05:00:55.860Z,101127.86
2023-05-05T05:03:22.695Z,101129.52
2023-05-05T05:05:50.239Z,101129.45
2023-05-05T05:08:17.540Z,101132.90
2023-05-05T05:10:45.189Z,101132.88
2023-05-05T05:13:13.039Z,101130.52
2023-05-05T05:15:40.715Z,101127.09
2023-05-05T05:18:07.462Z,101129.40
2023-05-05T05:20:36.663Z,101127.20
2023-05-05T05:23:05.258Z,101130.30
2023-05-05T05:25:35.327Z,101132.52
2023-05-05T05:28:10.311Z,101129.42
2023-05-05T05:30:43.299Z,101134.02
2023-05-05T05:33:10.788Z,101131.73
2023-05-05T05:35:38.401Z,101134.21
2023-05-05T05:38:06.305Z,101136.54
2023-05-05T05:40:33.264Z,101135.66
2023-05-05T05:42:59.956Z,101135.98
2023-05-05T05:45:27.274Z,101138.83
2023-05-05T05:47:54.037Z,101139.07
2023-05-05T05:50:21.470Z,101137.73
2023-05-05T05:52:49.374Z,101136.31
2023-05-05T05:55:16.043Z,101136.82
2023-05-05T05:57:43.767Z,101135.94
2023-05-05T06:00:13.303Z,101140.67
2023-05-05T06:02:41.105Z,101142.52
2023-05-05T06:05:11.352Z,101140.27
2023-05-05T06:07:38.004Z,101144.30
2023-05-05T06:10:22.613Z,101147.76
2023-05-05T06:12:53.460Z,101148.29
2023-05-05T06:15:20.362Z,101150.52
2023-05-05T06:17:47.192Z,101147.27
2023-05-05T06:20:15.381Z,101150.92
2023-05-05T06:22:41.956Z,101148.73
2023-05-05T06:25:09.330Z,101149.36
2023-05-05T06:27:37.069Z,101152.85
2023-05-05T06:30:04.453Z,101151.50
2023-05-05T06:32:32.430Z,101150.43
2023-05-05T06:34:59.006Z,101153.09
2023-05-05T06:37:26.389Z,101153.91
2023-05-05T06:39:52.983Z,101151.44
2023-05-05T06:42:19.561Z,101152.67
2023-05-05T06:44:46.388Z,101147.76
2023-05-05T06:47:13.050Z,101152.66
2023-05-05T06:49:39.679Z,101151.48
2023-05-05T06:52:08.475Z,101149.90
2023-05-05T06:54:35.062Z,101150.36
2023-05-05T06:57:02.502Z,101153.16
2023-05-05T06:59:29.597Z,101152.38
2023-05-05T07:01:56.947Z,101154.48
2023-05-05T07:04:23.602Z,101157.33
2023-05-05T07:06:50.495Z,101158.80
2023-05-05T07:09:17.510Z,101157.70
2023-05-05T07:11:44.393Z,101160.14
2023-05-05T07:14:11.474Z,101161.22
2023-05-05T07:16:39.516Z,101157.77
2023-05-05T07:19:06.400Z,101154.27
2023-05-05T07:21:37.508Z,101154.09
2023-05-05T07:24:04.256Z,101155.49
2023-05-05T07:26:31.503Z,101155.98
2023-05-05T07:28:59.481Z,101159.44
2023-05-05T07:31:26.628Z,101156.23
2023-05-05T07:33:54.466Z,101157.29
2023-05-05T07:36:21.062Z,101160.55
2023-05-05T07:38:48.531Z,101155.80
2023-05-05T07:41:16.544Z,101153.65
2023-05-05T07:43:44.607Z,101156.78
2023-05-05T07:46:12.155Z,101155.77
2023-05-05T07:48:41.574Z,101150.80
2023-05-05T07:51:09.549Z,101151.02
2023-05-05T07:53:36.674Z,101150.93
2023-05-05T07:56:03.553Z,101152.11
2023-05-05T07:58:30.169Z,101146.68
2023-05-05T08:00:56.888Z,101147.68
2023-05-05T08:03:25.146Z,101146.88
2023-05-05T08:05:55.518Z,101143.55
2023-05-05T08:08:25.099Z,101141.86
2023-05-05T08:10:53.215Z,101145.96
2023-05-05T08:13:39.605Z,101143.08
2023-05-05T08:16:07.716Z,101142.34
2023-05-05T08:18:38.593Z,101142.97
2023-05-05T08:21:10.593Z,101142.02
2023-05-05T08:23:38.580Z,101141.58
2023-05-05T08:26:06.537Z,101139.13
2023-05-05T08:28:36.602Z,101138.70
2023-05-05T08:31:07.001Z,101139.22
2023-05-05T08:33:34.620Z,101133.63
2023-05-05T08:36:02.053Z,101133.08
2023-05-05T08:38:28.644Z,101134.02
2023-05-05T08:40:55.669Z,101133.12
2023-05-05T08:43:23.911Z,101133.31
2023-05-05T08:45:53.578Z,101132.73
2023-05-05T08:48:23.310Z,101134.54
2023-05-05T08:50:59.870Z,101133.40
2023-05-05T08:53:48.847Z,101133.41
2023-05-05T08:56:16.120Z,101130.20
2023-05-05T08:58:43.898Z,101135.96
2023-05-05T09:01:12.048Z,101133.67
2023-05-05T09:03:39.723Z,101138.77
2023-05-05T09:06:07.226Z,101137.05
2023-05-05T09:08:34.174Z,101136.91
2023-05-05T09:11:02.341Z,101135.79
2023-05-05T09:13:30.786Z,101137.13
2023-05-05T09:15:58.261Z,101135.98
2023-05-05T09:18:25.844Z,101134.17
2023-05-05T09:20:52.520Z,101128.85
2023-05-05T09:23:20.541Z,101127.00
2023-05-05T09:26:02.032Z,101127.30
2023-05-05T09:28:29.224Z,101129.16
2023-05-05T09:30:55.893Z,101124.54
2023-05-05T09:33:31.681Z,101123.75
2023-05-05T09:35:58.601Z,101122.99
2023-05-05T09:38:25.532Z,101117.42
2023-05-05T09:40:53.665Z,101116.06
2023-05-05T09:43:22.369Z,101112.34
2023-05-05T09:45:49.957Z,101106.30
2023-05-05T09:48:31.924Z,101106.23
2023-05-05T09:50:59.371Z,101104.27
2023-05-05T09:53:27.198Z,101100.40
2023-05-05T09:55:58.019Z,101096.60
2023-05-05T09:58:26.951Z,101100.46
2023-05-05T10:00:55.724Z,101095.19
2023-05-05T10:03:23.053Z,101093.55
2023-05-05T10:05:54.621Z,101095.57
2023-05-05T10:08:23.988Z,101095.45
2023-05-05T10:10:57.082Z,101092.52
2023-05-05T10:13:24.797Z,101093.06
2023-05-05T10:15:55.071Z,101087.68
2023-05-05T10:18:24.598Z,101087.73
2023-05-05T10:21:04.359Z,101083.38
2023-05-05T10:23:48.908Z,101079.58
2023-05-05T10:26:19.648Z,101075.35
2023-05-05T10:28:56.799Z,101074.42
2023-05-05T10:31:37.331Z,101079.84
2023-05-05T10:34:09.772Z,101073.48
2023-05-05T10:36:39.204Z,101071.80
2023-05-05T10:39:10.774Z,101069.02
2023-05-05T10:41:37.959Z,101063.01
2023-05-05T10:44:06.252Z,101063.36
2023-05-05T10:46:33.088Z,101057.48
2023-05-05T10:49:51.188Z,101050.50
2023-05-05T10:52:29.065Z,101047.30
2023-05-05T10:55:01.674Z,101047.41
2023-05-05T10:57:29.629Z,101041.58
2023-05-05T10:59:56.213Z,101042.10
2023-05-05T11:02:27.147Z,101043.40
2023-05-05T11:05:04.081Z,101039.63
2023-05-05T11:07:31.032Z,101035.44
2023-05-05T11:10:01.542Z,101032.65
2023-05-05T11:12:32.281Z,101022.92
2023-05-05T11:15:24.190Z,101019.67
2023-05-05T11:17:51.159Z,101016.56
2023-05-05T11:20:18.006Z,101014.73
2023-05-05T11:23:02.961Z,101013.06
2023-05-05T11:25:45.364Z,101009.30
2023-05-05T11:28:28.629Z,101010.09
2023-05-05T11:30:55.310Z,101004.39
2023-05-05T11:33:29.337Z,100996.82
2023-05-05T11:36:07.149Z,100993.05
2023-05-05T11:39:02.831Z,100991.16
2023-05-05T11:41:32.334Z,100991.90
2023-05-05T11:44:13.421Z,100995.08
2023-05-05T11:46:53.415Z,100988.75
2023-05-05T11:49:27.363Z,100986.73
2023-05-05T11:51:57.939Z,100985.61
2023-05-05T11:54:25.370Z,100984.24
2023-05-05T11:56:54.415Z,100981.46
2023-05-05T11:59:21.736Z,100972.63
2023-05-05T12:01:48.666Z,100969.54
2023-05-05T12:04:16.449Z,100969.91
2023-05-05T12:06:46.194Z,100972.02
2023-05-05T12:09:21.769Z,100974.34
2023-05-05T12:11:58.716Z,100971.58
2023-05-05T12:14:25.802Z,100963.73
2023-05-05T12:16:56.332Z,100963.17
2023-05-05T12:19:23.984Z,100958.38
2023-05-05T12:21:50.837Z,100960.27
2023-05-05T12:24:18.017Z,100951.87
2023-05-05T12:26:44.643Z,100950.45
2023-05-05T12:29:11.301Z,100949.70
2023-05-05T12:31:42.321Z,100946.55
2023-05-05T12:34:10.690Z,100949.69
2023-05-05T12:36:38.302Z,100945.30
2023-05-05T12:39:05.401Z,100938.38
2023-05-05T12:41:32.743Z,100943.25
2023-05-05T12:44:00.766Z,100938.61
2023-05-05T12:46:29.852Z,100933.17
2023-05-05T12:49:07.507Z,100932.08
2023-05-05T12:51:37.837Z,100929.29
2023-05-05T12:54:10.029Z,100924.98
2023-05-05T12:56:41.420Z,100921.39
2023-05-05T12:59:08.925Z,100915.70
2023-05-05T13:01:36.984Z,100914.02
2023-05-05T13:04:10.734Z,100911.77
2023-05-05T13:06:39.153Z,100910.55
2023-05-05T13:09:06.738Z,100906.41
2023-05-05T13:11:38.041Z,100900.44
2023-05-05T13:14:06.549Z,100902.48
2023-05-05T13:16:33.956Z,100902.76
2023-05-05T13:19:00.648Z,100891.39
2023-05-05T13:21:28.204Z,100890.23
2023-05-05T13:23:59.093Z,100884.54
2023-05-05T13:26:31.757Z,100885.42
2023-05-05T13:28:58.421Z,100883.18
2023-05-05T13:31:25.068Z,100880.45
2023-05-05T13:33:51.969Z,100874.97
2023-05-05T13:36:18.548Z,100871.95
2023-05-05T13:38:45.568Z,100872.38
2023-05-05T13:41:12.231Z,100871.77
2023-05-05T13:43:38.824Z,100872.08
2023-05-05T13:46:19.147Z,100866.05
2023-05-05T13:48:47.656Z,100867.20
2023-05-05T13:51:15.944Z,100866.36
2023-05-05T13:53:44.152Z,100859.96
2023-05-05T13:56:11.020Z,100859.39
2023-05-05T13:58:37.963Z,100853.82
2023-05-05T14:01:04.750Z,100854.68
2023-05-05T14:03:31.752Z,100848.92
2023-05-05T14:05:58.491Z,100845.65
2023-05-05T14:08:25.232Z,100845.04
2023-05-05T14:10:52.235Z,100842.88
2023-05-05T14:13:19.216Z,100836.67
2023-05-05T14:15:46.577Z,100834.86
2023-05-05T14:18:13.184Z,100836.27
2023-05-05T14:20:39.891Z,100836.83
2023-05-05T14:23:06.611Z,100835.30
2023-05-05T14:25:33.250Z,100837.04
2023-05-05T14:27:59.829Z,100840.31
2023-05-05T14:30:26.456Z,100839.11
2023-05-05T14:32:53.165Z,100838.45
2023-05-05T14:35:19.808Z,100832.29
2023-05-05T14:37:46.557Z,100830.98
2023-05-05T14:40:13.195Z,100831.16
2023-05-05T14:42:39.873Z,100829.30
2023-05-05T14:45:08.986Z,100827.55
2023-05-05T14:47:35.776Z,100822.09
2023-05-05T14:50:02.426Z,100822.76
2023-05-05T14:52:29.058Z,100822.39
2023-05-05T14:54:55.826Z,100824.10
2023-05-05T14:57:22.434Z,100826.70
2023-05-05T14:59:52.046Z,100824.53
2023-05-05T15:02:19.177Z,100824.42
2023-05-05T15:04:46.737Z,100823.91
2023-05-05T15:07:14.764Z,100826.27
2023-05-05T15:09:41.318Z,100822.56
2023-05-05T15:12:07.886Z,100822.85
2023-05-05T15:14:36.616Z,100824.31
2023-05-05T15:17:03.261Z,100822.88
2023-05-05T15:19:29.935Z,100819.89
2023-05-05T15:21:56.552Z,100817.98
2023-05-05T15:24:23.280Z,100817.92
2023-05-05T15:26:49.899Z,100816.89
2023-05-05T15:29:16.537Z,100815.77
2023-05-05T15:31:43.238Z,100810.25
2023-05-05T15:34:09.898Z,100810.52
2023-05-05T15:36:36.505Z,100808.45
2023-05-05T15:39:03.390Z,100809.81
2023-05-05T15:41:30.054Z,100804.30
2023-05-05T15:43:57.053Z,100802.29
2023-05-05T15:46:23.731Z,100801.41
2023-05-05T15:48:50.441Z,100802.12
2023-05-05T15:51:17.076Z,100799.89
2023-05-05T15:53:43.677Z,100797.05
2023-05-05T15:56:11.805Z,100796.11
2023-05-05T15:58:38.397Z,100792.27
2023-05-05T16:01:05.243Z,100790.09
2023-05-05T16:03:32.081Z,100788.77
2023-05-05T16:05:58.837Z,100784.41
2023-05-05T16:08:25.457Z,100780.55
2023-05-05T16:10:52.693Z,100784.25
2023-05-05T16:13:19.441Z,100783.16
2023-05-05T16:15:46.347Z,100779.28
2023-05-05T16:18:13.107Z,100778.26
2023-05-05T16:20:40.155Z,100778.52
2023-05-05T16:23:08.050Z,100777.80
2023-05-05T16:25:34.681Z,100774.56
2023-05-05T16:28:01.844Z,100778.21
2023-05-05T16:30:29.511Z,100777.11
2023-05-05T16:32:56.228Z,100775.95
2023-05-05T16:35:23.071Z,100773.39
2023-05-05T16:37:49.644Z,100771.04
2023-05-05T16:40:16.277Z,100771.55
2023-05-05T16:42:44.481Z,100771.27
2023-05-05T16:45:11.836Z,100770.46
2023-05-05T16:47:38.561Z,100764.27
2023-05-05T16:50:06.214Z,100759.91
2023-05-05T16:52:32.798Z,100760.02
2023-05-05T16:54:59.396Z,100758.20
2023-05-05T16:57:26.081Z,100756.91
2023-05-05T16:59:56.112Z,100755.31
2023-05-05T17:02:23.130Z,100753.91
2023-05-05T17:04:49.742Z,100751.39
2023-05-05T17:07:16.329Z,100751.59
2023-05-05T17:09:42.887Z,100751.95
2023-05-05T17:12:09.500Z,100755.02
2023-05-05T17:14:36.361Z,100756.04
2023-05-05T17:17:03.062Z,100750.20
2023-05-05T17:19:29.764Z,100748.79
2023-05-05T17:21:56.927Z,100750.02
2023-05-05T17:24:24.138Z,100748.51
2023-05-05T17:26:50.914Z,100747.78
2023-05-05T17:29:21.637Z,100747.21
2023-05-05T17:31:48.499Z,100750.83
2023-05-05T17:34:15.235Z,100749.91
2023-05-05T17:36:42.115Z,100752.00
2023-05-05T17:39:10.664Z,100755.82
2023-05-05T17:41:37.333Z,100755.58
2023-05-05T17:44:04.151Z,100754.31
2023-05-05T17:46:30.789Z,100759.77
2023-05-05T17:48:57.462Z,100761.02
2023-05-05T17:51:24.084Z,100766.46
2023-05-05T17:53:50.666Z,100764.55
2023-05-05T17:56:17.276Z,100765.27
2023-05-05T17:58:43.866Z,100769.95
2023-05-05T18:01:20.089Z,100773.69
2023-05-05T18:03:46.817Z,100776.52
2023-05-05T18:06:13.439Z,100773.42
2023-05-05T18:08:40.013Z,100776.48
2023-05-05T18:11:06.648Z,100781.62
2023-05-05T18:13:33.357Z,100788.73
2023-05-05T18:15:59.996Z,100785.93
2023-05-05T18:18:26.992Z,100786.80
2023-05-05T18:20:53.658Z,100787.33
2023-05-05T18:23:20.345Z,100784.76
2023-05-05T18:25:46.959Z,100785.29
2023-05-05T18:28:13.651Z,100783.60
2023-05-05T18:30:40.362Z,100786.16
2023-05-05T18:33:07.013Z,100785.98
2023-05-05T18:35:33.801Z,100791.14
2023-05-05T18:38:00.376Z,100794.23
2023-05-05T18:40:27.154Z,100794.00
2023-05-05T18:42:53.887Z,100792.29
2023-05-05T18:45:20.918Z,100790.25
2023-05-05T18:47:47.667Z,100791.13
2023-05-05T18:50:14.412Z,100798.70
2023-05-05T18:52:40.981Z,100797.09
2023-05-05T18:55:08.292Z,100796.44
2023-05-05T18:57:35.079Z,100800.36
2023-05-05T19:00:01.892Z,100800.70
2023-05-05T19:02:28.657Z,100806.67
2023-05-05T19:04:55.478Z,100804.78
2023-05-05T19:07:33.802Z,100804.86
2023-05-05T19:10:01.664Z,100804.80
2023-05-05T19:12:28.360Z,100803.17
2023-05-05T19:14:56.064Z,100808.05
2023-05-05T19:17:24.134Z,100813.94
2023-05-05T19:19:51.100Z,100813.83
2023-05-05T19:22:19.191Z,100812.41
2023-05-05T19:24:47.825Z,100813.00
2023-05-05T19:27:16.696Z,100814.58
2023-05-05T19:29:44.332Z,100814.23
2023-05-05T19:32:18.456Z,100816.63
2023-05-05T19:34:46.110Z,100822.00
2023-05-05T19:37:14.602Z,100825.04
2023-05-05T19:39:45.699Z,100827.64
2023-05-05T19:42:12.805Z,100822.22
2023-05-05T19:44:49.328Z,100823.06
2023-05-05T19:47:16.540Z,100821.30
2023-05-05T19:49:43.180Z,100817.77
2023-05-05T19:52:09.833Z,100814.83
2023-05-05T19:54:36.690Z,100814.50
2023-05-05T19:57:03.464Z,100814.34
2023-05-05T19:59:30.256Z,100814.61
2023-05-05T20:01:56.944Z,100820.60
2023-05-05T20:04:23.576Z,100822.77
2023-05-05T20:06:50.650Z,100825.47
2023-05-05T20:09:17.611Z,100822.96
2023-05-05T20:11:44.207Z,100821.57
2023-05-05T20:14:10.906Z,100829.60
2023-05-05T20:16:37.650Z,100827.63
2023-05-05T20:19:05.420Z,100826.65
2023-05-05T20:21:33.743Z,100826.84
2023-05-05T20:24:01.120Z,100827.13
2023-05-05T20:26:27.734Z,100829.42
2023-05-05T20:28:54.330Z,100827.08
2023-05-05T20:31:21.187Z,100825.86
2023-05-05T20:33:48.010Z,100824.27
2023-05-05T20:36:15.488Z,100825.80
2023-05-05T20:38:43.631Z,100828.92
2023-05-05T20:41:10.440Z,100826.52
2023-05-05T20:43:37.425Z,100826.64
2023-05-05T20:46:04.098Z,100830.33
2023-05-05T20:48:30.706Z,100830.43
2023-05-05T20:50:58.913Z,100828.30
2023-05-05T20:53:25.644Z,100829.30
2023-05-05T20:55:52.249Z,100825.99
2023-05-05T20:58:18.929Z,100825.36
2023-05-05T21:00:46.147Z,100822.36
2023-05-05T21:03:13.015Z,100819.48
2023-05-05T21:05:41.450Z,100822.49
2023-05-05T21:08:10.324Z,100824.76
2023-05-05T21:10:36.954Z,100826.09
2023-05-05T21:13:03.759Z,100825.73
2023-05-05T21:15:30.617Z,100825.86
2023-05-05T21:17:57.606Z,100826.58
2023-05-05T21:20:24.519Z,100824.60
2023-05-05T21:22:51.333Z,100821.58
2023-05-05T21:25:20.476Z,100828.20
2023-05-05T21:27:48.544Z,100829.48
2023-05-05T21:30:16.642Z,100830.23
2023-05-05T21:32:43.820Z,100831.37
2023-05-05T21:35:10.844Z,100831.55
2023-05-05T21:37:39.118Z,100830.27
2023-05-05T21:40:13.356Z,100832.89
2023-05-05T21:42:41.265Z,100831.98
2023-05-05T21:45:08.950Z,100832.27
2023-05-05T21:47:35.990Z,100830.60
2023-05-05T21:50:02.618Z,100827.02
2023-05-05T21:52:32.051Z,100825.81
2023-05-05T21:54:58.760Z,100826.54
2023-05-05T21:57:25.385Z,100819.21
2023-05-05T21:59:52.029Z,100817.71
2023-05-05T22:02:18.711Z,100814.94
2023-05-05T22:04:48.782Z,100813.23
2023-05-05T22:07:15.591Z,100815.91
2023-05-05T22:09:43.068Z,100818.44
2023-05-05T22:12:09.807Z,100815.45
2023-05-05T22:14:36.405Z,100812.89
2023-05-05T22:17:03.111Z,100811.34
2023-05-05T22:19:29.720Z,100814.35
2023-05-05T22:21:58.749Z,100814.09
2023-05-05T22:24:25.849Z,100811.93
2023-05-05T22:26:52.502Z,100808.58
2023-05-05T22:29:19.241Z,100807.34
2023-05-05T22:31:45.974Z,100808.18
2023-05-05T22:34:12.715Z,100809.25
2023-05-05T22:36:39.308Z,100807.09
2023-05-05T22:39:06.536Z,100806.73
2023-05-05T22:41:33.117Z,100805.80
2023-05-05T22:43:59.790Z,100804.55
2023-05-05T22:46:26.471Z,100809.70
2023-05-05T22:48:54.220Z,100805.84
2023-05-05T22:51:20.904Z,100805.52
2023-05-05T22:53:47.958Z,100807.02
2023-05-05T22:56:14.710Z,100806.65
2023-05-05T22:58:41.320Z,100805.83
2023-05-05T23:01:08.039Z,100806.93
2023-05-05T23:03:34.665Z,100805.23
2023-05-05T23:06:01.290Z,100803.58
2023-05-05T23:08:27.970Z,100798.05
2023-05-05T23:10:56.368Z,100797.91
2023-05-05T23:13:23.014Z,100797.45
2023-05-05T23:15:49.725Z,100797.64
2023-05-05T23:18:16.374Z,100797.83
2023-05-05T23:20:43.009Z,100796.65
2023-05-05T23:23:09.692Z,100800.05
2023-05-05T23:25:36.364Z,100800.13
2023-05-05T23:28:03.083Z,100800.60
2023-05-05T23:30:29.705Z,100801.09
2023-05-05T23:32:58.089Z,100800.80
2023-05-05T23:35:24.883Z,100802.23
2023-05-05T23:37:51.577Z,100797.67
2023-05-05T23:40:18.200Z,100797.45
2023-05-05T23:42:44.794Z,100792.54
2023-05-05T23:45:11.796Z,100788.59
2023-05-05T23:47:38.743Z,100787.97
2023-05-05T23:50:06.056Z,100786.91
2023-05-05T23:52:32.667Z,100784.89
2023-05-05T23:54:59.231Z,100787.95
2023-05-05T23:57:26.343Z,100786.98
2023-05-05T23:59:53.015Z,100780.59
